Time;durP1;ratioP1;P1;durP2;ratioP2;P2;SDS_P1;SDS_P2;PMS_P1;PMS_P2;Temp;Humidity;BMP_temperature;BMP_pressure;BME280_temperature;BME280_humidity;BME280_pressure;Samples;Min_cycle;Max_cycle;Signal;HPM_P1;HPM_P2
2022/08/09 00:00:20;;;;;;;0.60;0.60;;;22.80;64.00;;;;;;6212822;22;43283;-63
2022/08/09 00:02:51;;;;;;;0.60;0.60;;;22.80;64.00;;;;;;6212634;22;43268;-63
2022/08/09 00:05:20;;;;;;;0.75;0.65;;;22.80;64.00;;;;;;6213158;22;44977;-63
2022/08/09 00:08:09;;;;;;;0.50;0.50;;;22.70;63.90;;;;;;6212356;22;43296;-63
2022/08/09 00:10:59;;;;;;;0.88;0.80;;;22.70;63.90;;;;;;6213145;22;43261;-63
2022/08/09 00:13:27;;;;;;;0.60;0.60;;;22.70;64.00;;;;;;6213139;22;43416;-63
2022/08/09 00:15:58;;;;;;;0.47;0.47;;;22.70;64.00;;;;;;6212954;22;44723;-63
2022/08/09 00:18:31;;;;;;;0.70;0.70;;;22.70;63.90;;;;;;6212609;22;43642;-63
2022/08/09 00:21:06;;;;;;;0.60;0.60;;;22.70;63.90;;;;;;6213111;22;43236;-63
2022/08/09 00:23:36;;;;;;;0.70;0.70;;;22.70;64.00;;;;;;6212151;22;43235;-63
2022/08/09 00:26:25;;;;;;;0.50;0.50;;;22.70;63.90;;;;;;6212612;22;44957;-63
2022/08/09 00:29:02;;;;;;;0.60;0.60;;;22.70;64.00;;;;;;6186261;22;43309;-63
2022/08/09 00:31:38;;;;;;;0.60;0.60;;;22.70;63.90;;;;;;6187258;22;43230;-63
2022/08/09 00:34:26;;;;;;;0.60;0.60;;;22.70;64.00;;;;;;6212862;22;43217;-63
2022/08/09 00:36:59;;;;;;;0.60;0.50;;;22.70;64.00;;;;;;6212478;22;44699;-63
2022/08/09 00:39:26;;;;;;;0.63;0.60;;;22.70;64.00;;;;;;6212594;22;43942;-63
2022/08/09 00:42:14;;;;;;;1.63;0.55;;;22.60;63.90;;;;;;6212745;22;43262;-63
2022/08/09 00:45:03;;;;;;;0.60;0.60;;;22.60;63.90;;;;;;6212734;22;43322;-63
2022/08/09 00:47:42;;;;;;;0.50;0.50;;;22.60;63.90;;;;;;6185528;22;47101;-63
2022/08/09 00:50:11;;;;;;;0.75;0.60;;;22.60;63.90;;;;;;6212460;22;43935;-63
2022/08/09 00:52:41;;;;;;;0.55;0.55;;;22.60;63.90;;;;;;6212154;22;43215;-63
2022/08/09 00:55:09;;;;;;;0.60;0.60;;;22.60;63.90;;;;;;6185876;22;43491;-63
2022/08/09 00:57:57;;;;;;;0.50;0.50;;;22.60;63.90;;;;;;6212183;22;44638;-63
2022/08/09 01:00:26;;;;;;;0.60;0.60;;;22.60;63.90;;;;;;6212235;22;43903;-63
2022/08/09 01:03:45;;;;;;;0.80;0.80;;;22.60;63.90;;;;;;6213264;22;43268;-63
2022/08/09 01:06:19;;;;;;;0.80;0.80;;;22.60;63.90;;;;;;6150677;22;43271;-63
2022/08/09 01:09:40;;;;;;;0.40;0.40;;;22.60;63.90;;;;;;6212624;22;44623;-63
2022/08/09 01:12:34;;;;;;;1.13;0.63;;;22.60;63.90;;;;;;6188042;22;43905;-63
2022/08/09 01:15:07;;;;;;;0.50;0.50;;;22.50;63.90;;;;;;6212967;22;43230;-63
2022/08/09 01:17:52;;;;;;;0.73;0.70;;;22.50;63.90;;;;;;6211526;22;43280;-63
2022/08/09 01:20:44;;;;;;;0.50;0.50;;;22.50;63.90;;;;;;6211152;22;43893;-63
2022/08/09 01:23:28;;;;;;;0.57;0.57;;;22.50;63.90;;;;;;6212470;22;43883;-63
2022/08/09 01:26:43;;;;;;;0.60;0.60;;;22.50;64.00;;;;;;6212009;22;43292;-63
2022/08/09 01:29:14;;;;;;;0.55;0.55;;;22.50;63.90;;;;;;6212583;22;43350;-63
2022/08/09 01:31:46;;;;;;;0.65;0.65;;;22.50;64.00;;;;;;6212834;22;43759;-63
2022/08/09 01:34:37;;;;;;;0.70;0.70;;;22.50;64.00;;;;;;6212093;22;43668;-63
2022/08/09 01:37:09;;;;;;;0.57;0.57;;;22.50;64.00;;;;;;6187138;22;43284;-63
2022/08/09 01:39:39;;;;;;;;;;;22.40;63.90;;;;;;6212206;22;43347;-63
2022/08/09 01:42:09;;;;;;;0.77;0.65;;;22.50;64.00;;;;;;6212134;22;43901;-63
2022/08/09 01:44:40;;;;;;;0.70;0.70;;;22.40;64.00;;;;;;6213512;22;43870;-63
2022/08/09 01:47:08;;;;;;;0.60;0.60;;;22.40;63.90;;;;;;6212980;22;43275;-63
2022/08/09 01:49:40;;;;;;;0.60;0.60;;;22.40;63.90;;;;;;6214026;22;43332;-63
2022/08/09 01:52:18;;;;;;;0.60;0.60;;;22.40;63.90;;;;;;6213461;22;44736;-63
2022/08/09 01:54:54;;;;;;;2.95;0.80;;;22.40;63.90;;;;;;6212760;22;43920;-63
2022/08/09 01:57:39;;;;;;;0.70;0.70;;;22.40;63.90;;;;;;6213859;22;43614;-63
2022/08/09 02:00:14;;;;;;;0.80;0.80;;;22.40;63.90;;;;;;6213335;22;43254;-63
2022/08/09 02:03:04;;;;;;;0.60;0.60;;;22.40;63.90;;;;;;6213052;22;43756;-63
2022/08/09 02:05:35;;;;;;;;;;;22.40;63.90;;;;;;6187403;22;43931;-63
2022/08/09 02:08:24;;;;;;;0.60;0.60;;;22.40;64.00;;;;;;6213166;22;43244;-63
2022/08/09 02:11:13;;;;;;;0.50;0.50;;;22.30;63.90;;;;;;6213606;22;43300;-63
2022/08/09 02:13:45;;;;;;;0.80;0.80;;;22.30;64.00;;;;;;6213425;22;44665;-63
2022/08/09 02:16:35;;;;;;;0.60;0.60;;;22.30;64.00;;;;;;6212598;22;43643;-63
2022/08/09 02:19:23;;;;;;;1.02;0.50;;;22.30;63.90;;;;;;6213488;22;43237;-63
2022/08/09 02:22:37;;;;;;;0.60;0.60;;;22.30;63.90;;;;;;6212479;22;43602;-63
2022/08/09 02:25:36;;;;;;;0.50;0.50;;;22.30;64.00;;;;;;6194427;22;44867;-63
2022/08/09 02:28:33;;;;;;;0.60;0.60;;;22.30;64.00;;;;;;6189690;22;44106;-63
2022/08/09 02:31:04;;;;;;;0.60;0.60;;;22.20;64.00;;;;;;6212597;22;43373;-63
2022/08/09 02:33:41;;;;;;;0.70;0.70;;;22.30;64.00;;;;;;6213352;22;43388;-63
2022/08/09 02:36:50;;;;;;;0.82;0.68;;;22.30;64.00;;;;;;6212465;22;44912;-63
2022/08/09 02:39:23;;;;;;;0.75;0.50;;;22.30;64.00;;;;;;6212863;22;43882;-63
2022/08/09 02:42:15;;;;;;;0.70;0.70;;;22.20;64.00;;;;;;6213064;22;43192;-63
2022/08/09 02:44:51;;;;;;;0.50;0.50;;;22.20;64.00;;;;;;6212593;22;43304;-63
2022/08/09 02:47:21;;;;;;;0.75;0.75;;;22.30;64.00;;;;;;6213264;22;44910;-63
2022/08/09 02:49:55;;;;;;;;;;;22.30;64.00;;;;;;6213614;22;43280;-63
2022/08/09 02:52:39;;;;;;;0.63;0.63;;;22.20;64.00;;;;;;6213354;22;43266;-63
2022/08/09 02:55:10;;;;;;;0.77;0.77;;;22.10;64.00;;;;;;6213298;22;43809;-63
2022/08/09 02:57:49;;;;;;;0.73;0.60;;;22.20;64.10;;;;;;6212363;22;44862;-63
2022/08/09 03:00:39;;;;;;;0.45;0.45;;;22.20;64.00;;;;;;6212909;22;43943;-63
2022/08/09 03:03:25;;;;;;;0.70;0.70;;;22.20;64.00;;;;;;6190739;22;43287;-63
2022/08/09 03:06:14;;;;;;;0.68;0.57;;;22.10;64.70;;;;;;6212503;22;43259;-63
2022/08/09 03:08:47;;;;;;;0.60;0.60;;;22.10;64.00;;;;;;6213077;22;44907;-63
2022/08/09 03:11:18;;;;;;;0.60;0.60;;;22.10;64.00;;;;;;6212153;22;43913;-63
2022/08/09 03:14:07;;;;;;;0.65;0.50;;;22.10;64.00;;;;;;6213407;22;43273;-63
2022/08/09 03:16:36;;;;;;;0.73;0.60;;;22.10;64.00;;;;;;6213248;22;43336;-63
2022/08/09 03:19:12;;;;;;;0.65;0.65;;;22.10;64.00;;;;;;6212163;22;44915;-62
2022/08/09 03:22:01;;;;;;;0.55;0.55;;;22.10;64.00;;;;;;6213331;22;43940;-63
2022/08/09 03:24:29;;;;;;;0.50;0.50;;;22.10;64.00;;;;;;6186173;22;43273;-63
2022/08/09 03:27:17;;;;;;;0.60;0.60;;;22.10;64.00;;;;;;6212886;22;43252;-63
2022/08/09 03:29:50;;;;;;;0.50;0.50;;;22.10;64.00;;;;;;6186124;22;43859;-63
2022/08/09 03:32:34;;;;;;;0.70;0.70;;;22.10;64.00;;;;;;6212125;22;43652;-63
2022/08/09 03:35:04;;;;;;;0.60;0.60;;;22.10;64.10;;;;;;6213139;22;43220;-63
2022/08/09 03:37:51;;;;;;;0.57;0.52;;;22.10;64.00;;;;;;6213365;22;43417;-63
2022/08/09 03:40:23;;;;;;;0.40;0.40;;;22.00;64.00;;;;;;6212090;22;44207;-63
2022/08/09 03:42:50;;;;;;;0.65;0.65;;;22.00;64.00;;;;;;6213120;22;43336;-63
2022/08/09 03:45:18;;;;;;;0.57;0.57;;;22.00;64.00;;;;;;6213239;22;43270;-63
2022/08/09 03:48:05;;;;;;;0.60;0.60;;;22.00;64.00;;;;;;6212392;22;43304;-63
2022/08/09 03:50:39;;;;;;;0.60;0.60;;;22.00;64.00;;;;;;6212733;22;43778;-63
2022/08/09 03:53:08;;;;;;;0.80;0.80;;;22.00;64.00;;;;;;6213039;22;43309;-63
2022/08/09 03:55:37;;;;;;;0.65;0.60;;;22.00;64.00;;;;;;6213020;22;43233;-63
2022/08/09 03:58:09;;;;;;;0.73;0.57;;;22.00;64.00;;;;;;6213225;22;43300;-63
2022/08/09 04:00:48;;;;;;;0.70;0.70;;;22.00;64.00;;;;;;6211999;22;44898;-63
2022/08/09 04:03:16;;;;;;;0.70;0.70;;;22.00;64.00;;;;;;6212938;22;43649;-63
2022/08/09 04:06:05;;;;;;;0.65;0.65;;;22.00;64.00;;;;;;6212952;22;43725;-63
2022/08/09 04:08:33;;;;;;;0.93;0.93;;;22.00;64.10;;;;;;6211868;22;43331;-63
2022/08/09 04:11:01;;;;;;;0.60;0.60;;;22.00;64.00;;;;;;6212146;22;44950;-63
2022/08/09 04:13:32;;;;;;;0.50;0.50;;;22.00;64.00;;;;;;6211800;22;43628;-63
2022/08/09 04:16:19;;;;;;;0.40;0.40;;;22.00;64.00;;;;;;6190111;22;43230;-63
2022/08/09 04:18:47;;;;;;;0.50;0.50;;;22.00;64.00;;;;;;6213021;22;43326;-63
2022/08/09 04:21:18;;;;;;;1.58;0.80;;;21.90;64.00;;;;;;6212443;22;44606;-63
2022/08/09 04:23:45;;;;;;;0.57;0.57;;;21.90;63.90;;;;;;6212801;22;43246;-63
2022/08/09 04:26:20;;;;;;;0.57;0.57;;;21.90;64.00;;;;;;6213029;22;43228;-63
2022/08/09 04:28:49;;;;;;;0.50;0.50;;;21.90;63.90;;;;;;6212499;22;43457;-63
2022/08/09 04:31:21;;;;;;;0.52;0.52;;;21.90;63.90;;;;;;6212313;22;44764;-63
2022/08/09 04:33:52;;;;;;;0.60;0.60;;;21.90;63.90;;;;;;6212934;22;43280;-62
2022/08/09 04:36:27;;;;;;;0.60;0.60;;;21.90;64.00;;;;;;6212332;22;43255;-63
2022/08/09 04:38:57;;;;;;;0.80;0.80;;;21.90;64.00;;;;;;6213245;22;43391;-63
2022/08/09 04:41:26;;;;;;;0.40;0.40;;;21.90;64.00;;;;;;6212626;22;44675;-62
2022/08/09 04:44:01;;;;;;;0.40;0.40;;;21.90;64.00;;;;;;6212155;22;43254;-62
2022/08/09 04:46:37;;;;;;;0.47;0.47;;;21.90;64.00;;;;;;6212812;22;43201;-63
2022/08/09 04:49:25;;;;;;;0.68;0.68;;;21.90;64.00;;;;;;6213059;22;43373;-62
2022/08/09 04:52:13;;;;;;;0.50;0.50;;;21.90;64.00;;;;;;6212434;22;44948;-63
2022/08/09 04:54:46;;;;;;;0.55;0.55;;;21.80;64.00;;;;;;6212809;22;43249;-62
2022/08/09 04:57:14;;;;;;;0.65;0.60;;;21.80;64.00;;;;;;6211924;22;43335;-62
2022/08/09 04:59:47;;;;;;;0.50;0.50;;;21.80;64.00;;;;;;6213077;22;43324;-63
2022/08/09 05:02:16;;;;;;;0.45;0.45;;;21.80;64.00;;;;;;6212049;22;44976;-62
2022/08/09 05:04:44;;;;;;;0.43;0.43;;;21.80;64.00;;;;;;6211546;22;44051;-62
2022/08/09 05:07:13;;;;;;;0.40;0.40;;;21.80;64.00;;;;;;6212485;22;43272;-63
2022/08/09 05:09:46;;;;;;;0.57;0.57;;;21.80;64.00;;;;;;6212590;22;43241;-63
2022/08/09 05:12:16;;;;;;;0.53;0.53;;;21.80;64.00;;;;;;6211100;22;43759;-62
2022/08/09 05:14:47;;;;;;;1.25;0.70;;;21.80;64.00;;;;;;6212624;22;43614;-63
2022/08/09 05:17:16;;;;;;;0.47;0.47;;;21.80;64.00;;;;;;6212307;22;43702;-63
2022/08/09 05:20:04;;;;;;;0.50;0.50;;;21.80;64.00;;;;;;6212482;22;43336;-63
2022/08/09 05:22:32;;;;;;;1.85;0.47;;;21.80;64.00;;;;;;6211650;22;44634;-62
2022/08/09 05:25:22;;;;;;;0.60;0.60;;;21.80;64.00;;;;;;6211838;22;43304;-63
2022/08/09 05:27:51;;;;;;;2.75;0.40;;;21.80;64.00;;;;;;6212467;22;43173;-62
2022/08/09 05:30:21;;;;;;;0.30;0.30;;;21.80;64.00;;;;;;6212165;22;43316;-62
2022/08/09 05:32:49;;;;;;;0.40;0.40;;;21.80;64.00;;;;;;6211112;22;43751;-62
2022/08/09 05:35:20;;;;;;;0.50;0.40;;;21.80;64.00;;;;;;6212421;22;43617;-62
2022/08/09 05:37:49;;;;;;;0.50;0.50;;;21.80;64.00;;;;;;6212717;22;43249;-62
2022/08/09 05:40:17;;;;;;;0.40;0.40;;;21.80;64.00;;;;;;6211393;22;43426;-62
2022/08/09 05:42:45;;;;;;;0.40;0.40;;;21.80;64.10;;;;;;6211731;22;43830;-62
2022/08/09 05:45:13;;;;;;;0.30;0.30;;;21.80;64.00;;;;;;6212058;22;43260;-62
2022/08/09 05:47:42;;;;;;;0.65;0.40;;;21.80;64.10;;;;;;6211565;22;43205;-62
2022/08/09 05:50:24;;;;;;;0.52;0.52;;;21.80;64.10;;;;;;6211900;22;43226;-63
2022/08/09 05:53:11;;;;;;;0.40;0.40;;;21.80;64.10;;;;;;6211290;22;43767;-63
2022/08/09 05:55:59;;;;;;;0.47;0.47;;;21.80;64.10;;;;;;6212508;22;43209;-62
2022/08/09 05:58:28;;;;;;;0.50;0.50;;;21.80;64.20;;;;;;6212525;22;43650;-62
2022/08/09 06:00:55;;;;;;;0.55;0.55;;;21.70;64.50;;;;;;6211584;22;43305;-62
2022/08/09 06:03:24;;;;;;;0.50;0.50;;;21.70;64.20;;;;;;6212132;22;44727;-62
2022/08/09 06:06:09;;;;;;;0.50;0.50;;;21.70;64.20;;;;;;6212256;22;43925;-62
2022/08/09 06:08:37;;;;;;;0.52;0.52;;;21.70;64.20;;;;;;6211357;22;43291;-62
2022/08/09 06:11:07;;;;;;;0.40;0.40;;;21.70;64.20;;;;;;6212049;22;43300;-62
2022/08/09 06:13:44;;;;;;;0.55;0.55;;;21.70;64.20;;;;;;6211781;22;44144;-63
2022/08/09 06:16:14;;;;;;;0.98;0.43;;;21.70;64.30;;;;;;6211010;22;43739;-63
2022/08/09 06:18:43;;;;;;;0.50;0.50;;;21.70;64.20;;;;;;6211909;22;43854;-62
2022/08/09 06:21:10;;;;;;;0.50;0.50;;;21.70;64.30;;;;;;6184232;22;43265;-60
2022/08/09 06:23:42;;;;;;;0.63;0.57;;;21.70;64.30;;;;;;6211793;22;43751;-63
2022/08/09 06:26:27;;;;;;;0.52;0.52;;;21.70;64.30;;;;;;6211619;22;43590;-63
2022/08/09 06:28:56;;;;;;;0.60;0.60;;;21.70;64.40;;;;;;6211693;22;43257;-63
2022/08/09 06:31:28;;;;;;;0.50;0.50;;;21.70;64.30;;;;;;6213298;22;43356;-63
2022/08/09 06:33:57;;;;;;;0.40;0.40;;;21.70;64.30;;;;;;6213958;22;43759;-63
2022/08/09 06:36:25;;;;;;;0.45;0.45;;;21.70;64.30;;;;;;6212454;22;43221;-63
2022/08/09 06:38:56;;;;;;;0.52;0.52;;;21.70;64.30;;;;;;6214241;22;43278;-63
2022/08/09 06:41:24;;;;;;;0.47;0.47;;;21.70;64.40;;;;;;6213566;22;43275;-63
2022/08/09 06:44:13;;;;;;;0.40;0.40;;;21.70;64.30;;;;;;6212773;22;44771;-63
2022/08/09 06:46:46;;;;;;;0.70;0.70;;;21.70;64.40;;;;;;6213825;22;43814;-64
2022/08/09 06:49:21;;;;;;;1.35;0.55;;;21.70;64.40;;;;;;6212669;22;43272;-63
2022/08/09 06:52:09;;;;;;;0.40;0.40;;;21.70;64.40;;;;;;6212749;22;43303;-63
2022/08/09 06:54:38;;;;;;;0.88;0.70;;;21.70;64.40;;;;;;6213220;22;44697;-63
2022/08/09 06:57:07;;;;;;;0.52;0.52;;;21.70;64.40;;;;;;6208335;22;43173;-63
2022/08/09 06:59:37;;;;;;;0.50;0.50;;;21.70;64.50;;;;;;6212749;22;43282;-63
2022/08/09 07:02:25;;;;;;;0.45;0.40;;;21.70;64.40;;;;;;6189899;22;43331;-63
2022/08/09 07:04:59;;;;;;;1.15;0.75;;;21.70;64.40;;;;;;6211567;22;44981;-63
2022/08/09 07:07:27;;;;;;;0.60;0.60;;;21.70;64.30;;;;;;6211799;22;43602;-63
2022/08/09 07:10:15;;;;;;;1.02;0.70;;;21.70;64.40;;;;;;6211466;22;43283;-63
2022/08/09 07:12:58;;;;;;;0.68;0.50;;;21.70;64.40;;;;;;6212947;22;43384;-63
2022/08/09 07:15:45;;;;;;;0.60;0.60;;;21.70;64.40;;;;;;6212300;22;43732;-63
2022/08/09 07:18:32;;;;;;;0.50;0.50;;;21.70;64.40;;;;;;6211606;22;43703;-63
2022/08/09 07:21:00;;;;;;;0.40;0.40;;;21.80;64.40;;;;;;6212519;22;43293;-63
2022/08/09 07:23:28;;;;;;;0.63;0.60;;;21.80;64.40;;;;;;6212514;22;43324;-63
2022/08/09 07:26:02;;;;;;;1.52;0.47;;;21.80;64.40;;;;;;6211491;22;44641;-64
2022/08/09 07:28:31;;;;;;;1.75;0.68;;;21.80;64.40;;;;;;6212408;22;43285;-64
2022/08/09 07:31:03;;;;;;;1.30;0.68;;;21.70;64.40;;;;;;6212721;22;43330;-63
2022/08/09 07:33:32;;;;;;;0.55;0.50;;;21.80;64.50;;;;;;6211752;22;43367;-63
2022/08/09 07:36:20;;;;;;;0.93;0.60;;;21.80;64.50;;;;;;6189271;22;44654;-63
2022/08/09 07:38:48;;;;;;;0.45;0.45;;;21.70;64.50;;;;;;6211744;22;43248;-63
2022/08/09 07:41:26;;;;;;;0.43;0.40;;;21.70;64.40;;;;;;6212189;22;43332;-63
2022/08/09 07:44:04;;;;;;;1.13;0.40;;;21.70;64.40;;;;;;6212604;22;43359;-63
2022/08/09 07:46:32;;;;;;;1.95;0.60;;;21.80;64.50;;;;;;6211375;22;44903;-63
2022/08/09 07:49:04;;;;;;;0.50;0.50;;;21.70;64.40;;;;;;6185378;22;44039;-63
2022/08/09 07:51:34;;;;;;;0.65;0.55;;;21.70;64.40;;;;;;6212263;22;43229;-63
2022/08/09 07:54:22;;;;;;;0.50;0.45;;;21.80;64.40;;;;;;6211598;22;43317;-63
2022/08/09 07:56:56;;;;;;;0.50;0.50;;;21.80;65.00;;;;;;6212228;22;43976;-63
2022/08/09 07:59:25;;;;;;;0.60;0.60;;;21.80;64.30;;;;;;6210932;22;43257;-63
2022/08/09 08:02:12;;;;;;;0.73;0.55;;;21.80;64.90;;;;;;6212230;22;43264;-63
2022/08/09 08:04:47;;;;;;;0.82;0.50;;;21.80;64.30;;;;;;6212705;22;43399;-63
2022/08/09 08:07:19;;;;;;;2.15;0.70;;;21.80;64.40;;;;;;6210772;22;44004;-63
2022/08/09 08:10:07;;;;;;;0.43;0.43;;;21.80;64.30;;;;;;6212062;22;43878;-63
2022/08/09 08:12:40;;;;;;;0.55;0.55;;;21.80;64.20;;;;;;6211906;22;43253;-63
2022/08/09 08:15:12;;;;;;;0.82;0.60;;;21.80;64.20;;;;;;6211582;22;43444;-63
2022/08/09 08:17:45;;;;;;;0.40;0.40;;;21.80;64.30;;;;;;6185465;22;44922;-63
2022/08/09 08:20:24;;;;;;;1.30;0.60;;;21.90;64.40;;;;;;6210847;22;43718;-62
2022/08/09 08:23:01;;;;;;;0.82;0.60;;;21.90;64.40;;;;;;6212600;22;43258;-62
2022/08/09 08:25:47;;;;;;;1.23;0.60;;;21.80;64.30;;;;;;6212007;22;43312;-63
2022/08/09 08:28:32;;;;;;;1.63;0.50;;;21.80;64.30;;;;;;6211072;22;44918;-62
2022/08/09 08:31:02;;;;;;;0.68;0.60;;;21.90;64.30;;;;;;6212252;22;43275;-63
2022/08/09 08:33:42;;;;;;;0.93;0.70;;;21.90;64.30;;;;;;6212018;22;43304;-63
2022/08/09 08:36:24;;;;;;;1.00;0.70;;;21.90;64.20;;;;;;6210501;22;43327;-62
2022/08/09 08:38:56;;;;;;;0.82;0.52;;;21.80;64.20;;;;;;6212444;22;43866;-63
2022/08/09 08:41:24;;;;;;;1.00;0.43;;;21.90;64.30;;;;;;6185182;22;43950;-62
2022/08/09 08:44:13;;;;;;;0.30;0.30;;;21.90;64.40;;;;;;6212139;22;43290;-63
2022/08/09 08:46:41;;;;;;;0.50;0.50;;;21.90;64.40;;;;;;6211682;22;43357;-63
2022/08/09 08:49:32;;;;;;;0.40;0.40;;;21.90;64.30;;;;;;6210422;22;44819;-63
2022/08/09 08:52:20;;;;;;;0.70;0.68;;;21.90;64.30;;;;;;6188128;22;43381;-63
2022/08/09 08:55:09;;;;;;;0.90;0.80;;;21.90;64.30;;;;;;6212767;22;43277;-63
2022/08/09 08:57:37;;;;;;;0.40;0.38;;;21.90;64.30;;;;;;6211746;22;43272;-63
2022/08/09 09:00:09;;;;;;;0.75;0.57;;;21.90;64.30;;;;;;6212274;22;44593;-62
2022/08/09 09:02:56;;;;;;;0.98;0.60;;;21.90;64.20;;;;;;6211655;22;43940;-63
2022/08/09 09:05:29;;;;;;;0.40;0.40;;;21.90;64.20;;;;;;6212323;22;43237;-62
2022/08/09 09:08:19;;;;;;;0.52;0.52;;;21.90;64.20;;;;;;6212499;22;43314;-63
2022/08/09 09:11:03;;;;;;;0.50;0.50;;;21.90;64.20;;;;;;6211745;22;43835;-63
2022/08/09 09:13:38;;;;;;;0.77;0.68;;;21.90;64.20;;;;;;6212129;22;43765;-63
2022/08/09 09:16:22;;;;;;;0.60;0.60;;;22.00;64.30;;;;;;6212102;22;43218;-63
2022/08/09 09:18:59;;;;;;;0.60;0.52;;;21.90;64.30;;;;;;6211829;22;43305;-64
2022/08/09 09:22:05;;;;;;;0.60;0.50;;;21.90;64.30;;;;;;6212119;22;43792;-63
2022/08/09 09:24:41;;;;;;;0.43;0.40;;;22.00;64.40;;;;;;6211552;22;43658;-63
2022/08/09 09:27:13;;;;;;;0.50;0.50;;;22.00;64.40;;;;;;6212774;22;43248;-63
2022/08/09 09:30:12;;;;;;;1.17;0.50;;;22.00;64.20;;;;;;6212705;22;43185;-63
2022/08/09 09:33:02;;;;;;;0.30;0.30;;;22.00;64.30;;;;;;6211732;22;43782;-62
2022/08/09 09:35:57;;;;;;;1.25;0.40;;;22.00;64.30;;;;;;6212544;22;43939;-62
2022/08/09 09:38:42;;;;;;;0.50;0.50;;;22.00;64.20;;;;;;6211845;22;43265;-62
2022/08/09 09:41:26;;;;;;;0.38;0.38;;;22.10;64.20;;;;;;6185381;22;43371;-63
2022/08/09 09:43:56;;;;;;;0.80;0.45;;;22.00;64.20;;;;;;6212501;22;43615;-62
2022/08/09 09:46:42;;;;;;;0.98;0.40;;;22.10;64.20;;;;;;6211600;22;43627;-63
2022/08/09 09:49:21;;;;;;;0.82;0.30;;;22.10;64.20;;;;;;6212647;22;43704;-63
2022/08/09 09:52:10;;;;;;;0.82;0.47;;;22.10;64.20;;;;;;6207961;22;43275;-62
2022/08/09 09:55:08;;;;;;;1.00;0.45;;;22.10;64.40;;;;;;6211477;22;45091;-62
2022/08/09 09:58:01;;;;;;;0.40;0.40;;;22.20;64.40;;;;;;6211783;22;43930;-63
2022/08/09 10:01:03;;;;;;;0.60;0.60;;;22.20;64.30;;;;;;6210708;22;43321;-62
2022/08/09 10:03:52;;;;;;;0.57;0.32;;;22.20;64.40;;;;;;6211817;22;43615;-62
2022/08/09 10:06:28;;;;;;;0.55;0.38;;;22.30;64.30;;;;;;6212267;22;44963;-63
2022/08/09 10:09:03;;;;;;;0.43;0.43;;;22.30;64.40;;;;;;6210678;22;43634;-62
2022/08/09 10:11:59;;;;;;;0.88;0.50;;;22.30;64.30;;;;;;6200071;22;43311;-63
2022/08/09 10:14:47;;;;;;;1.38;0.40;;;22.30;64.30;;;;;;6198722;22;43384;-62
2022/08/09 10:17:19;;;;;;;0.53;0.40;;;22.30;64.40;;;;;;6200271;22;44922;-63
2022/08/09 10:20:24;;;;;;;0.70;0.70;;;22.30;64.20;;;;;;6199188;22;43395;-62
2022/08/09 10:23:19;;;;;;;0.75;0.73;;;22.40;64.20;;;;;;6200763;22;43284;-63
2022/08/09 10:25:49;;;;;;;0.40;0.40;;;22.40;64.40;;;;;;6201002;22;43323;-63
2022/08/09 10:28:38;;;;;;;0.60;0.60;;;22.40;64.30;;;;;;6199407;22;44700;-63
2022/08/09 10:31:08;;;;;;;1.23;0.40;;;22.40;64.40;;;;;;6200741;22;43245;-63
2022/08/09 10:33:55;;;;;;;0.43;0.43;;;22.40;64.30;;;;;;6200588;22;43276;-63
2022/08/09 10:36:43;;;;;;;1.30;0.60;;;22.40;64.20;;;;;;6200900;22;43220;-63
2022/08/09 10:39:11;;;;;;;0.50;0.50;;;22.40;64.20;;;;;;6200123;22;43779;-63
2022/08/09 10:41:45;;;;;;;0.47;0.47;;;22.40;64.20;;;;;;6199513;22;43800;-63
2022/08/09 10:44:19;;;;;;;0.75;0.43;;;22.50;64.20;;;;;;6200194;22;43277;-63
2022/08/09 10:47:15;;;;;;;0.82;0.47;;;22.50;64.30;;;;;;6200269;22;43588;-63
2022/08/09 10:50:27;;;;;;;0.52;0.52;;;22.50;64.20;;;;;;6199874;22;44631;-63
2022/08/09 10:53:04;;;;;;;0.98;0.57;;;22.50;64.10;;;;;;6200735;22;43918;-63
2022/08/09 10:55:37;;;;;;;0.50;0.50;;;22.50;64.20;;;;;;6199736;22;43779;-63
2022/08/09 10:58:32;;;;;;;0.60;0.60;;;22.50;64.20;;;;;;6212054;22;43331;-63
2022/08/09 11:01:02;;;;;;;0.47;0.45;;;22.60;64.20;;;;;;6213513;22;44658;-63
2022/08/09 11:04:09;;;;;;;0.40;0.40;;;22.60;64.00;;;;;;6190187;22;43273;-64
2022/08/09 11:06:59;;;;;;;0.50;0.50;;;22.60;64.00;;;;;;6213969;22;43225;-63
2022/08/09 11:09:39;;;;;;;0.30;0.30;;;22.60;64.00;;;;;;6212901;22;43214;-63
2022/08/09 11:12:23;;;;;;;0.40;0.40;;;22.60;64.00;;;;;;6213246;22;44703;-63
2022/08/09 11:15:22;;;;;;;0.30;0.30;;;22.60;64.20;;;;;;6213595;22;43647;-64
2022/08/09 11:18:00;;;;;;;1.13;0.50;;;22.60;64.30;;;;;;6208337;22;43232;-63
2022/08/09 11:20:46;;;;;;;0.52;0.52;;;22.60;64.20;;;;;;6212291;22;43367;-64
2022/08/09 11:23:16;;;;;;;0.50;0.50;;;22.70;64.20;;;;;;6204172;22;44899;-63
2022/08/09 11:25:56;;;;;;;1.05;0.43;;;22.70;64.20;;;;;;6182665;22;43664;-64
2022/08/09 11:28:38;;;;;;;0.95;0.60;;;22.70;64.20;;;;;;6208893;22;43243;-63
2022/08/09 11:31:43;;;;;;;0.73;0.40;;;22.80;64.00;;;;;;6207693;22;43327;-63
2022/08/09 11:34:35;;;;;;;0.40;0.40;;;22.80;64.00;;;;;;6208356;22;43856;-64
2022/08/09 11:37:03;;;;;;;0.40;0.40;;;22.80;64.10;;;;;;6208985;22;43928;-63
2022/08/09 11:40:01;;;;;;;0.40;0.40;;;22.80;64.10;;;;;;6208695;22;43244;-63
2022/08/09 11:42:49;;;;;;;0.40;0.40;;;22.80;64.00;;;;;;6208912;22;43242;-64
2022/08/09 11:45:25;;;;;;;0.55;0.45;;;22.90;64.10;;;;;;6208329;22;44657;-63
2022/08/09 11:48:23;;;;;;;0.32;0.32;;;22.90;64.00;;;;;;6208531;22;43340;-63
2022/08/09 11:50:56;;;;;;;0.47;0.30;;;22.90;64.10;;;;;;6209115;22;43510;-63
2022/08/09 11:53:44;;;;;;;0.47;0.40;;;22.90;64.10;;;;;;6208676;22;43352;-64
2022/08/09 11:56:28;;;;;;;0.35;0.35;;;23.00;64.10;;;;;;6209084;22;44613;-63
2022/08/09 11:59:26;;;;;;;0.40;0.40;;;23.00;64.10;;;;;;6208289;22;43947;-64
2022/08/09 12:02:00;;;;;;;0.30;0.30;;;23.10;64.00;;;;;;6208912;22;43333;-64
2022/08/09 12:04:51;;;;;;;0.22;0.22;;;23.10;64.00;;;;;;6209244;22;43225;-63
2022/08/09 12:07:28;;;;;;;0.40;0.40;;;23.10;64.40;;;;;;6208569;22;44631;-64
2022/08/09 12:10:10;;;;;;;0.52;0.40;;;23.10;64.00;;;;;;6210078;22;43946;-63
2022/08/09 12:12:59;;;;;;;0.40;0.40;;;23.10;64.00;;;;;;6212398;22;43257;-64
2022/08/09 12:15:47;;;;;;;0.40;0.40;;;23.20;64.00;;;;;;6212933;22;43262;-63
2022/08/09 12:18:19;;;;;;;0.50;0.50;;;23.20;64.10;;;;;;6212862;22;44931;-64
2022/08/09 12:20:58;;;;;;;0.70;0.30;;;23.20;64.00;;;;;;6212304;22;43313;-64
2022/08/09 12:23:30;;;;;;;0.30;0.30;;;23.20;64.00;;;;;;6212660;22;43261;-63
2022/08/09 12:26:20;;;;;;;0.30;0.30;;;23.30;64.00;;;;;;6212563;22;43195;-63
2022/08/09 12:28:55;;;;;;;0.50;0.40;;;23.30;63.90;;;;;;6212265;22;43849;-63
2022/08/09 12:31:44;;;;;;;0.52;0.52;;;23.30;63.90;;;;;;6212841;22;43850;-63
2022/08/09 12:34:32;;;;;;;0.60;0.30;;;23.30;64.00;;;;;;6211532;22;43269;-63
2022/08/09 12:37:02;;;;;;;0.30;0.30;;;23.30;63.90;;;;;;6213383;22;43731;-63
2022/08/09 12:40:20;;;;;;;0.47;0.32;;;23.40;63.90;;;;;;6190395;22;44051;-63
2022/08/09 12:42:50;;;;;;;;;;;23.40;63.90;;;;;;6178201;22;43342;-63
2022/08/09 12:45:19;;;;;;;0.35;0.35;;;23.50;64.50;;;;;;6208168;22;43360;-63
2022/08/09 12:48:07;;;;;;;0.43;0.40;;;23.50;64.80;;;;;;6207685;22;43723;-64
2022/08/09 12:50:56;;;;;;;0.38;0.30;;;23.50;64.50;;;;;;6209276;22;43743;-64
2022/08/09 12:53:36;;;;;;;0.40;0.32;;;23.60;64.10;;;;;;6208235;22;43860;-63
2022/08/09 12:56:10;;;;;;;0.30;0.30;;;23.60;64.00;;;;;;6208359;22;43226;-64
2022/08/09 12:59:13;;;;;;;0.47;0.38;;;23.60;63.90;;;;;;6209584;22;43218;-62
2022/08/09 13:01:44;;;;;;;0.40;0.40;;;23.60;64.00;;;;;;6207603;22;43981;-63
2022/08/09 13:04:17;;;;;;;0.38;0.30;;;23.60;63.90;;;;;;6208094;22;43891;-63
2022/08/09 13:07:15;;;;;;;0.40;0.40;;;23.70;64.00;;;;;;6208728;22;43320;-63
2022/08/09 13:09:46;;;;;;;0.35;0.35;;;23.70;63.90;;;;;;6208446;22;43319;-63
2022/08/09 13:12:28;;;;;;;0.45;0.45;;;23.70;63.90;;;;;;6208308;22;43780;-63
2022/08/09 13:15:07;;;;;;;0.95;0.40;;;23.70;63.80;;;;;;6207094;22;43317;-63
2022/08/09 13:17:35;;;;;;;0.38;0.38;;;23.80;64.10;;;;;;6208006;22;43289;-63
2022/08/09 13:20:33;;;;;;;0.35;0.35;;;23.80;63.70;;;;;;6207460;22;43480;-63
2022/08/09 13:23:04;;;;;;;0.30;0.30;;;23.90;63.80;;;;;;6155790;22;47135;-63
2022/08/09 13:25:51;;;;;;;0.30;0.30;;;23.90;63.80;;;;;;6208581;22;43647;-63
2022/08/09 13:28:22;;;;;;;0.40;0.40;;;23.90;63.80;;;;;;6208865;22;43271;-63
2022/08/09 13:31:10;;;;;;;0.50;0.50;;;23.90;63.70;;;;;;6207882;22;43446;-63
2022/08/09 13:33:57;;;;;;;0.30;0.30;;;23.90;63.60;;;;;;6212567;22;43741;-63
2022/08/09 13:36:26;;;;;;;1.08;0.30;;;23.90;63.60;;;;;;6212052;22;43615;-63
2022/08/09 13:39:11;;;;;;;0.40;0.40;;;24.00;63.60;;;;;;6212772;22;43335;-63
2022/08/09 13:42:11;;;;;;;0.30;0.30;;;23.90;63.60;;;;;;6213873;22;43323;-63
2022/08/09 13:44:41;;;;;;;0.90;0.30;;;24.00;63.60;;;;;;6212048;22;44643;-63
2022/08/09 13:47:15;;;;;;;0.30;0.30;;;24.10;63.70;;;;;;6213465;22;43640;-63
2022/08/09 13:50:07;;;;;;;0.60;0.50;;;24.00;63.60;;;;;;6213761;22;43261;-63